»·PEaware :: SWA6757 KSJC-KPDX

SWA6757 :: KSJC-KPDX

FLIGHT INFORMATION

Flight Status: Arrived
Operator:
Southwest Airlines
More flights by this operator :: More flights under this callsign
Pilot: Nicholas S. (20462)
Aircraft: BOEING 737-800
(B738)
More flights by this aircraft type
Origin: KSJC Mineta San Jose Intl
United States
Destination: KPDX Portland Intl
United States
More flights between these airports :: More routes between these airports
Route: +LOUPE4 BMRNG HRNER MACHU TMBRS2
File this flight plan on PilotEdge
Remarks:
Altitude:
(Current/Filed)
40,000ft
Speed:
(Current/Filed)
465kts
Departed: 15-Sep-18 12:21 PM
Arrived: 15-Sep-18 01:43 PM
Distance/Time
Traveled:
495nm/1:22
Distance/Time
To Go:
Arrived

Flight Plot

Page will automatically refresh every two minutes.

Flight plan parsing failed; only flown route is shown


Map Options




Map Legend


Flown Route
Filed Route
Departure Airport
Arrival Airport
Navaid (VOR, NDB)
Fix

Horizontal Profiles

Position Reports

Time Latitude Longitude Heading Altitude Ground
Speed
15-Sep-18 12:01 37.365903 -121.926394 0 45ft 0kts
15-Sep-18 12:02 37.365903 -121.926394 49 45ft 0kts
15-Sep-18 12:03 37.365903 -121.926394 49 45ft 0kts
15-Sep-18 12:04 37.365903 -121.926394 49 45ft 0kts
15-Sep-18 12:05 37.365903 -121.926394 49 45ft 0kts
15-Sep-18 12:06 37.365903 -121.926394 49 45ft 0kts
15-Sep-18 12:07 37.365903 -121.926394 49 45ft 0kts
15-Sep-18 12:08 37.365903 -121.926394 49 45ft 0kts
15-Sep-18 12:09 37.365903 -121.926394 49 45ft 0kts
15-Sep-18 12:10 37.365903 -121.926394 49 45ft 0kts
15-Sep-18 12:11 37.365877 -121.926432 49 45ft 2kts
15-Sep-18 12:12 37.365523 -121.926931 18 46ft 2kts
15-Sep-18 12:13 37.365340 -121.926855 319 47ft 0kts
15-Sep-18 12:14 37.365340 -121.926855 319 47ft 0kts
15-Sep-18 12:15 37.365340 -121.926855 319 47ft 0kts
15-Sep-18 12:16 37.365384 -121.926697 158 46ft 5kts
15-Sep-18 12:17 37.363012 -121.924446 139 51ft 20kts
15-Sep-18 12:18 37.358864 -121.919909 138 56ft 27kts
15-Sep-18 12:19 37.354828 -121.915483 139 61ft 22kts
15-Sep-18 12:20 37.353017 -121.914405 232 64ft 0kts
15-Sep-18 12:21 37.352585 -121.915114 232 65ft 12kts
15-Sep-18 12:22 37.352607 -121.915563 313 65ft 0kts
15-Sep-18 12:23 37.358302 -121.921853 319 57ft 119kts
15-Sep-18 12:24 37.386409 -121.952610 319 1654ft 166kts
15-Sep-18 12:25 37.425966 -121.971025 28 3559ft 190kts
15-Sep-18 12:26 37.422211 -121.904116 97 5066ft 263kts
15-Sep-18 12:27 37.468317 -121.858401 334 7718ft 276kts
15-Sep-18 12:28 37.531203 -121.902488 326 10255ft 299kts
15-Sep-18 12:29 37.603949 -121.956137 328 12408ft 337kts
15-Sep-18 12:30 37.693442 -121.974087 353 14961ft 360kts
15-Sep-18 12:31 37.790572 -121.981835 352 17358ft 375kts
15-Sep-18 12:32 37.893795 -121.990454 352 19621ft 389kts
15-Sep-18 12:33 38.003137 -121.999736 351 21770ft 403kts
15-Sep-18 12:34 38.115746 -122.009372 351 23745ft 415kts
15-Sep-18 12:35 38.211310 -122.017585 350 25226ft 425kts
15-Sep-18 12:36 38.349834 -122.031281 346 27151ft 435kts
15-Sep-18 12:37 38.450472 -122.047875 345 28445ft 442kts
15-Sep-18 12:38 38.592985 -122.071924 345 30427ft 444kts
15-Sep-18 12:39 38.694121 -122.089142 344 31899ft 439kts
15-Sep-18 12:40 38.833569 -122.113000 343 33737ft 434kts
15-Sep-18 12:41 38.952256 -122.133358 344 35279ft 426kts
15-Sep-18 12:42 39.048025 -122.149793 346 36517ft 417kts
15-Sep-18 12:43 39.161763 -122.169312 346 37474ft 417kts
15-Sep-18 12:44 39.276104 -122.188927 346 38331ft 417kts
15-Sep-18 12:45 39.390801 -122.208587 346 39133ft 417kts
15-Sep-18 12:46 39.504862 -122.228154 346 39810ft 417kts
15-Sep-18 12:47 39.620886 -122.248128 346 39974ft 431kts
15-Sep-18 12:48 39.741612 -122.268869 346 39975ft 448kts
15-Sep-18 12:49 39.867183 -122.290377 346 39971ft 461kts
15-Sep-18 12:50 39.993461 -122.311966 346 39965ft 461kts
15-Sep-18 12:51 40.119460 -122.333537 347 39959ft 461kts
15-Sep-18 12:52 40.245549 -122.355149 346 39953ft 461kts
15-Sep-18 12:53 40.371252 -122.376724 347 39942ft 460kts
15-Sep-18 12:54 40.496280 -122.398201 346 39943ft 461kts
15-Sep-18 12:55 40.620540 -122.419531 347 39944ft 460kts
15-Sep-18 12:56 40.744661 -122.440832 347 39941ft 460kts
15-Sep-18 12:57 40.871434 -122.462600 347 39934ft 461kts
15-Sep-18 12:58 40.998078 -122.484359 347 39933ft 458kts
15-Sep-18 12:59 41.119544 -122.505246 349 39945ft 449kts
15-Sep-18 13:00 41.243091 -122.526443 349 39965ft 449kts
15-Sep-18 13:01 41.366264 -122.547606 349 39969ft 449kts
15-Sep-18 13:02 41.489614 -122.568798 349 39969ft 449kts
15-Sep-18 13:03 41.613066 -122.581688 354 39969ft 451kts
15-Sep-18 13:04 41.737584 -122.589689 354 39969ft 451kts
15-Sep-18 13:05 41.862326 -122.597761 354 39968ft 451kts
15-Sep-18 13:06 41.987123 -122.605899 354 39973ft 451kts
15-Sep-18 13:07 42.111456 -122.614057 354 39970ft 450kts
15-Sep-18 13:08 42.236404 -122.622306 354 39977ft 451kts
15-Sep-18 13:09 42.361522 -122.630623 354 39977ft 450kts
15-Sep-18 13:10 42.486319 -122.638954 354 39977ft 451kts
15-Sep-18 13:11 42.611075 -122.647310 354 39975ft 450kts
15-Sep-18 13:12 42.735190 -122.655689 353 39983ft 450kts
15-Sep-18 13:13 42.860231 -122.664163 353 39986ft 450kts
15-Sep-18 13:14 42.985116 -122.672670 353 39984ft 458kts
15-Sep-18 13:15 43.109374 -122.681162 353 39985ft 463kts
15-Sep-18 13:16 43.234359 -122.689711 353 39992ft 462kts
15-Sep-18 13:17 43.358740 -122.698243 353 39990ft 463kts
15-Sep-18 13:18 43.478207 -122.706388 353 39972ft 431kts
15-Sep-18 13:19 43.585445 -122.713753 353 39993ft 428kts
15-Sep-18 13:20 43.696602 -122.721455 353 39339ft 435kts
15-Sep-18 13:21 43.804866 -122.729034 353 36577ft 448kts
15-Sep-18 13:22 43.912772 -122.736526 353 34052ft 452kts
15-Sep-18 13:23 44.018848 -122.743961 353 31425ft 455kts
15-Sep-18 13:24 44.119747 -122.751044 353 28791ft 448kts
15-Sep-18 13:25 44.215306 -122.748164 1 26416ft 427kts
15-Sep-18 13:26 44.304825 -122.738907 1 24553ft 409kts
15-Sep-18 13:27 44.403875 -122.728876 1 22508ft 403kts
15-Sep-18 13:28 44.512450 -122.717928 1 20280ft 390kts
15-Sep-18 13:29 44.616889 -122.707379 1 18196ft 375kts
15-Sep-18 13:30 44.719172 -122.697020 1 16173ft 368kts
15-Sep-18 13:31 44.819770 -122.686800 1 14187ft 355kts
15-Sep-18 13:32 44.915988 -122.677053 1 12333ft 347kts
15-Sep-18 13:33 45.006332 -122.667799 1 10953ft 308kts
15-Sep-18 13:34 45.089391 -122.659323 1 9748ft 300kts
15-Sep-18 13:35 45.170879 -122.651000 2 8533ft 293kts
15-Sep-18 13:36 45.250250 -122.640643 17 7396ft 287kts
15-Sep-18 13:37 45.312776 -122.587876 31 6338ft 281kts
15-Sep-18 13:38 45.365991 -122.539493 30 5476ft 258kts
15-Sep-18 13:39 45.413803 -122.495217 32 4756ft 209kts
15-Sep-18 13:40 45.454844 -122.455943 21 3521ft 195kts
15-Sep-18 13:41 45.499245 -122.455933 354 2248ft 187kts
15-Sep-18 13:42 45.546058 -122.463821 330 1986ft 185kts
15-Sep-18 13:43 45.554732 -122.521478 287 1320ft 165kts
15-Sep-18 13:44 45.573177 -122.565200 298 349ft 155kts
15-Sep-18 13:45 45.586634 -122.599546 301 21ft 32kts
15-Sep-18 13:46 45.589561 -122.602061 29 23ft 9kts
15-Sep-18 13:47 45.589864 -122.600091 84 24ft 0kts

Navigation Log

Ident Type
Flight plan parsing failed, navigation log unavailable